Time,TemperatureF,DewpointF,PressureIn,WindDirection,WindDirectionDegrees,WindSpeedMPH,WindSpeedGustMPH,Humidity,HourlyPrecipIn,Conditions,Clouds,dailyrainin,SoftwareType,DateUTC
2013-02-05 00:07:00,18.2,12.0,29.98,NNE,27,0.0,0.0,76,0.00,,,0.00,weatherlink.com 1.10,2013-02-05 05:07:00,
2013-02-05 00:22:00,18.2,12.0,29.98,NNE,27,0.0,0.0,76,0.00,,,0.00,weatherlink.com 1.10,2013-02-05 05:22:00,
2013-02-05 00:37:00,18.3,12.0,29.98,NNE,27,0.0,1.0,75,0.00,,,0.00,weatherlink.com 1.10,2013-02-05 05:37:00,
2013-02-05 00:52:00,18.2,12.0,29.98,NNE,27,0.0,0.0,75,0.00,,,0.00,weatherlink.com 1.10,2013-02-05 05:52:00,
2013-02-05 01:07:00,18.2,12.0,29.98,NNE,27,0.0,1.0,75,0.00,,,0.00,weatherlink.com 1.10,2013-02-05 06:07:00,
2013-02-05 01:22:00,18.0,12.0,29.97,NNE,27,0.0,1.0,76,0.00,,,0.00,weatherlink.com 1.10,2013-02-05 06:22:00,
2013-02-05 01:37:00,17.9,12.0,29.97,NNE,32,0.0,3.0,76,0.00,,,0.00,weatherlink.com 1.10,2013-02-05 06:37:00,
2013-02-05 01:52:00,17.8,12.0,29.98,NNE,32,0.0,0.0,78,0.00,,,0.00,weatherlink.com 1.10,2013-02-05 06:52:00,
2013-02-05 02:07:00,17.7,12.0,29.98,NNE,32,0.0,0.0,79,0.00,,,0.00,weatherlink.com 1.10,2013-02-05 07:07:00,
2013-02-05 02:22:00,17.7,12.0,29.98,NNE,32,0.0,0.0,79,0.00,,,0.00,weatherlink.com 1.10,2013-02-05 07:22:00,
2013-02-05 02:37:00,17.5,12.0,29.98,NNE,32,0.0,0.0,80,0.00,,,0.00,weatherlink.com 1.10,2013-02-05 07:37:00,
2013-02-05 03:07:00,17.4,13.0,29.97,NNE,32,0.0,0.0,81,0.00,,,0.00,weatherlink.com 1.10,2013-02-05 08:07:00,
2013-02-05 03:22:00,17.3,13.0,29.97,NNE,32,0.0,0.0,82,0.00,,,0.00,weatherlink.com 1.10,2013-02-05 08:22:00,
2013-02-05 03:37:00,17.2,13.0,29.98,NNE,32,0.0,0.0,83,0.00,,,0.00,weatherlink.com 1.10,2013-02-05 08:37:00,
2013-02-05 03:52:00,17.1,13.0,29.98,NNE,32,0.0,0.0,84,0.00,,,0.00,weatherlink.com 1.10,2013-02-05 08:52:00,
2013-02-05 04:07:00,17.1,13.0,29.98,NNE,32,0.0,0.0,84,0.00,,,0.00,weatherlink.com 1.10,2013-02-05 09:07:00,
2013-02-05 04:22:00,17.1,13.0,29.98,NNE,32,0.0,0.0,84,0.00,,,0.00,weatherlink.com 1.10,2013-02-05 09:22:00,
2013-02-05 04:37:00,17.2,14.0,29.98,NNE,32,0.0,0.0,85,0.00,,,0.00,weatherlink.com 1.10,2013-02-05 09:37:00,
2013-02-05 04:52:00,17.2,14.0,29.98,NNE,32,0.0,0.0,85,0.00,,,0.00,weatherlink.com 1.10,2013-02-05 09:52:00,
2013-02-05 05:08:00,17.3,14.0,29.98,NNE,32,0.0,0.0,86,0.00,,,0.00,weatherlink.com 1.10,2013-02-05 10:08:00,
2013-02-05 05:22:00,17.3,14.0,29.99,NNE,32,0.0,0.0,86,0.00,,,0.00,weatherlink.com 1.10,2013-02-05 10:22:00,
2013-02-05 05:37:00,17.3,14.0,29.99,NNE,32,0.0,0.0,86,0.00,,,0.00,weatherlink.com 1.10,2013-02-05 10:37:00,
2013-02-05 05:52:00,17.5,14.0,29.99,NNE,32,0.0,1.0,87,0.00,,,0.00,weatherlink.com 1.10,2013-02-05 10:52:00,
2013-02-05 06:07:00,17.5,14.0,29.99,NNE,32,0.0,1.0,86,0.00,,,0.00,weatherlink.com 1.10,2013-02-05 11:07:00,
2013-02-05 06:22:00,17.3,14.0,30.00,NNE,32,0.0,0.0,86,0.00,,,0.00,weatherlink.com 1.10,2013-02-05 11:22:00,
2013-02-05 06:37:00,17.4,14.0,30.00,NNE,32,0.0,0.0,87,0.00,,,0.00,weatherlink.com 1.10,2013-02-05 11:37:00,
2013-02-05 06:52:00,17.5,14.0,30.01,NNE,32,0.0,0.0,86,0.00,,,0.00,weatherlink.com 1.10,2013-02-05 11:52:00,
2013-02-05 07:08:00,17.6,14.0,30.02,NNE,32,0.0,0.0,86,0.00,,,0.00,weatherlink.com 1.10,2013-02-05 12:08:00,
2013-02-05 07:22:00,17.6,14.0,30.02,NNE,32,0.0,0.0,86,0.00,,,0.00,weatherlink.com 1.10,2013-02-05 12:22:00,
2013-02-05 07:37:00,17.5,14.0,30.02,NNE,32,0.0,0.0,86,0.00,,,0.00,weatherlink.com 1.10,2013-02-05 12:37:00,
2013-02-05 07:52:00,17.8,14.0,30.03,NNE,32,0.0,0.0,86,0.00,,,0.00,weatherlink.com 1.10,2013-02-05 12:52:00,
2013-02-05 08:07:00,18.0,15.0,30.03,NNE,32,0.0,0.0,86,0.00,,,0.00,weatherlink.com 1.10,2013-02-05 13:07:00,
2013-02-05 08:23:00,18.4,15.0,30.03,NNE,32,0.0,1.0,86,0.00,,,0.00,weatherlink.com 1.10,2013-02-05 13:23:00,
2013-02-05 08:38:00,18.4,14.0,30.04,NNE,32,0.0,2.0,82,0.00,,,0.00,weatherlink.com 1.10,2013-02-05 13:38:00,
2013-02-05 08:53:00,18.9,14.0,30.04,NE,41,0.0,2.0,82,0.00,,,0.00,weatherlink.com 1.10,2013-02-05 13:53:00,
2013-02-05 09:08:00,19.4,15.0,30.04,NE,47,0.0,2.0,82,0.00,,,0.00,weatherlink.com 1.10,2013-02-05 14:08:00,
2013-02-05 09:23:00,19.7,14.0,30.04,NE,43,0.0,2.0,79,0.00,,,0.00,weatherlink.com 1.10,2013-02-05 14:23:00,
2013-02-05 09:38:00,20.0,14.0,30.04,ESE,109,0.0,1.0,77,0.00,,,0.00,weatherlink.com 1.10,2013-02-05 14:38:00,
2013-02-05 09:53:00,21.0,14.0,30.04,ESE,105,1.0,2.0,74,0.00,,,0.00,weatherlink.com 1.10,2013-02-05 14:53:00,
2013-02-05 10:08:00,21.7,13.0,30.04,ENE,61,3.0,4.0,68,0.00,,,0.00,weatherlink.com 1.10,2013-02-05 15:08:00,
2013-02-05 10:23:00,21.9,12.0,30.04,ENE,57,1.0,3.0,67,0.00,,,0.00,weatherlink.com 1.10,2013-02-05 15:23:00,
2013-02-05 10:38:00,23.2,14.0,30.04,SE,131,0.0,3.0,67,0.00,,,0.00,weatherlink.com 1.10,2013-02-05 15:38:00,
2013-02-05 10:53:00,24.1,13.0,30.03,SE,143,1.0,3.0,63,0.00,,,0.00,weatherlink.com 1.10,2013-02-05 15:53:00,
2013-02-05 11:08:00,24.0,13.0,30.03,SSE,155,1.0,1.0,62,0.00,,,0.00,weatherlink.com 1.10,2013-02-05 16:08:00,
2013-02-05 11:23:00,24.3,13.0,30.03,South,181,0.0,2.0,63,0.00,,,0.00,weatherlink.com 1.10,2013-02-05 16:23:00,
2013-02-05 11:38:00,25.0,14.0,30.02,ESE,118,1.0,5.0,62,0.00,,,0.00,weatherlink.com 1.10,2013-02-05 16:38:00,
2013-02-05 11:53:00,25.6,13.0,30.01,SSE,159,2.0,5.0,60,0.00,,,0.00,weatherlink.com 1.10,2013-02-05 16:53:00,
2013-02-05 12:08:00,25.8,14.0,30.00,ESE,122,3.0,4.0,60,0.00,,,0.00,weatherlink.com 1.10,2013-02-05 17:08:00,
2013-02-05 12:23:00,25.6,13.0,29.98,South,175,4.0,4.0,58,0.00,,,0.00,weatherlink.com 1.10,2013-02-05 17:23:00,
2013-02-05 12:38:00,26.1,14.0,29.98,SE,146,1.0,3.0,60,0.00,,,0.00,weatherlink.com 1.10,2013-02-05 17:38:00,
2013-02-05 12:53:00,26.3,13.0,29.98,SE,126,0.0,2.0,57,0.00,,,0.00,weatherlink.com 1.10,2013-02-05 17:53:00,
2013-02-05 13:08:00,26.8,13.0,29.98,NE,41,2.0,4.0,56,0.00,,,0.00,weatherlink.com 1.10,2013-02-05 18:08:00,
2013-02-05 13:23:00,27.0,14.0,29.97,NE,36,0.0,4.0,58,0.00,,,0.00,weatherlink.com 1.10,2013-02-05 18:23:00,
2013-02-05 13:38:00,28.0,14.0,29.96,East,100,1.0,4.0,55,0.00,,,0.00,weatherlink.com 1.10,2013-02-05 18:38:00,
2013-02-05 13:53:00,30.1,15.0,29.96,East,100,0.0,5.0,53,0.00,,,0.00,weatherlink.com 1.10,2013-02-05 18:53:00,
2013-02-05 14:08:00,28.5,14.0,29.95,ENE,73,0.0,5.0,54,0.00,,,0.00,weatherlink.com 1.10,2013-02-05 19:08:00,
2013-02-05 14:23:00,29.3,14.0,29.94,NNE,30,0.0,3.0,53,0.00,,,0.00,weatherlink.com 1.10,2013-02-05 19:23:00,
2013-02-05 14:38:00,29.0,14.0,29.94,ESE,104,4.0,5.0,54,0.00,,,0.00,weatherlink.com 1.10,2013-02-05 19:38:00,
2013-02-05 14:53:00,29.6,15.0,29.93,SE,142,0.0,4.0,54,0.00,,,0.00,weatherlink.com 1.10,2013-02-05 19:53:00,
2013-02-05 15:08:00,29.3,14.0,29.94,NE,53,0.0,4.0,54,0.00,,,0.00,weatherlink.com 1.10,2013-02-05 20:08:00,
2013-02-05 15:23:00,28.6,15.0,29.94,ESE,104,2.0,4.0,56,0.00,,,0.00,weatherlink.com 1.10,2013-02-05 20:23:00,
2013-02-05 15:38:00,28.0,14.0,29.94,East,84,0.0,3.0,57,0.00,,,0.00,weatherlink.com 1.10,2013-02-05 20:38:00,
2013-02-05 15:53:00,28.0,15.0,29.94,SSE,161,0.0,3.0,59,0.00,,,0.00,weatherlink.com 1.10,2013-02-05 20:53:00,
2013-02-05 16:09:00,28.0,15.0,29.93,SE,131,0.0,3.0,59,0.00,,,0.00,weatherlink.com 1.10,2013-02-05 21:09:00,
2013-02-05 16:23:00,27.6,15.0,29.94,ESE,111,0.0,2.0,60,0.00,,,0.00,weatherlink.com 1.10,2013-02-05 21:23:00,
2013-02-05 16:38:00,27.5,15.0,29.93,SE,143,0.0,2.0,60,0.00,,,0.00,weatherlink.com 1.10,2013-02-05 21:38:00,
2013-02-05 16:53:00,27.3,15.0,29.93,SE,146,0.0,3.0,61,0.00,,,0.00,weatherlink.com 1.10,2013-02-05 21:53:00,
2013-02-05 17:08:00,27.0,15.0,29.93,SSE,155,0.0,2.0,62,0.00,,,0.00,weatherlink.com 1.10,2013-02-05 22:08:00,
2013-02-05 17:23:00,26.8,15.0,29.92,SSE,153,0.0,2.0,62,0.00,,,0.00,weatherlink.com 1.10,2013-02-05 22:23:00,
2013-02-05 17:38:00,26.6,15.0,29.91,SSE,153,0.0,1.0,63,0.00,,,0.00,weatherlink.com 1.10,2013-02-05 22:38:00,
2013-02-05 17:53:00,26.3,16.0,29.91,SSE,153,0.0,1.0,64,0.00,,,0.00,weatherlink.com 1.10,2013-02-05 22:53:00,
2013-02-05 18:09:00,26.0,16.0,29.92,ENE,61,0.0,3.0,65,0.00,,,0.00,weatherlink.com 1.10,2013-02-05 23:09:00,
2013-02-05 18:24:00,26.0,16.0,29.92,NE,38,0.0,1.0,66,0.00,,,0.00,weatherlink.com 1.10,2013-02-05 23:24:00,
2013-02-05 18:39:00,26.0,16.0,29.92,ENE,77,0.0,3.0,67,0.00,,,0.00,weatherlink.com 1.10,2013-02-05 23:39:00,
2013-02-05 18:54:00,26.1,16.0,29.93,ESE,106,0.0,3.0,67,0.00,,,0.00,weatherlink.com 1.10,2013-02-05 23:54:00,
2013-02-05 19:09:00,26.3,17.0,29.93,ESE,113,0.0,1.0,68,0.00,,,0.00,weatherlink.com 1.10,2013-02-06 00:09:00,
2013-02-05 19:24:00,26.5,18.0,29.93,South,174,1.0,5.0,69,0.00,,,0.00,weatherlink.com 1.10,2013-02-06 00:24:00,
2013-02-05 19:39:00,26.6,18.0,29.93,ESE,103,2.0,3.0,69,0.00,,,0.00,weatherlink.com 1.10,2013-02-06 00:39:00,
2013-02-05 19:54:00,26.6,17.0,29.93,SSE,152,0.0,0.0,68,0.00,,,0.00,weatherlink.com 1.10,2013-02-06 00:54:00,
2013-02-05 20:09:00,26.5,18.0,29.92,SE,145,0.0,2.0,69,0.00,,,0.00,weatherlink.com 1.10,2013-02-06 01:09:00,
2013-02-05 20:24:00,26.5,18.0,29.92,SE,132,0.0,1.0,70,0.00,,,0.00,weatherlink.com 1.10,2013-02-06 01:24:00,
2013-02-05 20:39:00,26.5,18.0,29.93,SE,136,0.0,2.0,71,0.00,,,0.00,weatherlink.com 1.10,2013-02-06 01:39:00,
2013-02-05 20:54:00,26.4,18.0,29.92,SE,136,0.0,0.0,71,0.00,,,0.00,weatherlink.com 1.10,2013-02-06 01:54:00,
2013-02-05 21:09:00,26.3,18.0,29.91,SE,136,0.0,0.0,71,0.00,,,0.00,weatherlink.com 1.10,2013-02-06 02:09:00,
2013-02-05 21:24:00,26.1,18.0,29.92,SE,136,0.0,0.0,72,0.00,,,0.00,weatherlink.com 1.10,2013-02-06 02:24:00,
2013-02-05 21:39:00,26.0,18.0,29.92,SE,136,0.0,0.0,72,0.00,,,0.00,weatherlink.com 1.10,2013-02-06 02:39:00,
2013-02-05 21:54:00,25.8,18.0,29.92,SE,136,0.0,0.0,73,0.00,,,0.00,weatherlink.com 1.10,2013-02-06 02:54:00,
2013-02-05 22:09:00,25.7,18.0,29.93,SE,136,0.0,0.0,74,0.00,,,0.00,weatherlink.com 1.10,2013-02-06 03:09:00,
2013-02-05 22:24:00,25.6,19.0,29.93,SE,136,0.0,0.0,75,0.00,,,0.00,weatherlink.com 1.10,2013-02-06 03:24:00,
2013-02-05 22:39:00,25.4,19.0,29.92,SE,136,0.0,0.0,75,0.00,,,0.00,weatherlink.com 1.10,2013-02-06 03:39:00,
2013-02-05 22:54:00,25.0,18.0,29.93,SE,136,0.0,0.0,76,0.00,,,0.00,weatherlink.com 1.10,2013-02-06 03:54:00,
2013-02-05 23:09:00,24.9,19.0,29.93,SE,136,0.0,0.0,77,0.00,,,0.00,weatherlink.com 1.10,2013-02-06 04:09:00,
2013-02-05 23:24:00,24.9,19.0,29.93,SE,136,0.0,0.0,77,0.00,,,0.00,weatherlink.com 1.10,2013-02-06 04:24:00,
2013-02-05 23:39:00,25.1,19.0,29.93,SE,136,0.0,1.0,78,0.00,,,0.00,weatherlink.com 1.10,2013-02-06 04:39:00,
2013-02-05 23:54:00,25.3,21.0,29.93,SE,136,1.0,1.0,82,0.00,,,0.00,weatherlink.com 1.10,2013-02-06 04:54:00,